Startpagina
METAR-TAF:

METAR-TAF

Vliegvelden :

Productieplatform

Goeree Le, Nederland

breedte: 51-55-33N, lengte: 3-40-12E, hoogte: 19 m

Actueel weer

Dit bericht is 28 minuten geleden gemaakt, om 13:55 UTC
Wind 12 kt uit het zuidwesten
Temperatuur 12°C
Vochtigheid 76%
Druk 1012 hPa
Zicht 10 km of meer

METAR: EHSC 261355Z AUTO 22012KT 9999 ///////// 12/08 Q1012 W11/H6

Tijdstip: 16:23 (14:23 UTC)


TAF: ontbreekt

Waarnemingen en weersverwachtingen van meer dan 4000 vliegvelden (METAR en TAF).

De beschikbare stations zijn de gele en rode punten op de kaart.

Ga met uw muis naar het station om de naam te zien.

Klik dan om waarnemingen en weersverwachtingen te zien.

kaart wijzigen: klik op de groene knoppen met een zwart kruis om in te zoomen, op de groene knop met een streepje om uit te zoomen of op de groene pijlen voor aangrenzende kaarten.


METAR-TAF: